Time;durP1;ratioP1;P1;durP2;ratioP2;P2;SDS_P1;SDS_P2;PMS_P1;PMS_P2;Temp;Humidity;BMP_temperature;BMP_pressure;BME280_temperature;BME280_humidity;BME280_pressure;Samples;Min_cycle;Max_cycle;Signal;HPM_P1;HPM_P2
2023/10/23 00:01:35;;;;;;;1.17;0.28;;;;;;;15.63;88.24;94711.44;5091408;28;20504;-78
2023/10/23 00:04:02;;;;;;;1.13;1.02;;;;;;;15.61;88.85;94719.19;5093404;28;20591;-78
2023/10/23 00:06:28;;;;;;;3.35;1.52;;;;;;;15.66;89.02;94711.88;5083585;28;20229;-79
2023/10/23 00:08:55;;;;;;;2.10;0.75;;;;;;;15.61;89.46;94718.38;5089636;28;20954;-76
2023/10/23 00:11:23;;;;;;;6.75;0.75;;;;;;;15.57;89.61;94715.59;5093384;28;20202;-76
2023/10/23 00:13:50;;;;;;;0.32;0.32;;;;;;;15.55;89.16;94717.09;5087111;28;20207;-77
2023/10/23 00:16:17;;;;;;;0.70;0.70;;;;;;;15.58;89.03;94714.44;5093707;28;20225;-77
2023/10/23 00:18:45;;;;;;;0.45;0.45;;;;;;;15.58;88.86;94708.19;5085780;28;20211;-77
2023/10/23 00:21:12;;;;;;;0.82;0.80;;;;;;;15.58;88.93;94703.50;5092035;28;20210;-76
2023/10/23 00:23:39;;;;;;;1.85;0.82;;;;;;;15.63;88.23;94711.44;5092829;28;20685;-77
2023/10/23 00:26:06;;;;;;;2.10;1.27;;;;;;;15.47;89.53;94710.66;5093188;28;20570;-77
2023/10/23 00:28:33;;;;;;;0.75;0.30;;;;;;;15.44;89.78;94713.31;5093040;28;20677;-76
2023/10/23 00:31:00;;;;;;;0.77;0.52;;;;;;;15.38;90.19;94715.53;5084464;28;20238;-77
2023/10/23 00:33:27;;;;;;;0.30;0.30;;;;;;;15.39;90.37;94719.84;5092749;28;20301;-77
2023/10/23 00:35:55;;;;;;;1.35;1.25;;;;;;;15.42;90.19;94719.13;5083071;28;20711;-77
2023/10/23 00:38:22;;;;;;;0.63;0.63;;;;;;;15.40;90.79;94715.16;5092956;28;20199;-77
2023/10/23 00:40:49;;;;;;;0.45;0.43;;;;;;;15.34;90.77;94720.09;5092627;28;20241;-77
2023/10/23 00:43:22;;;;;;;0.10;0.10;;;;;;;15.31;91.40;94712.59;5092836;28;20323;-77
2023/10/23 00:45:51;;;;;;;4.78;0.60;;;;;;;15.39;91.40;94711.66;5092415;28;20324;-77
2023/10/23 00:48:21;;;;;;;0.63;0.30;;;;;;;15.26;92.07;94713.69;5088041;28;20211;-77
2023/10/23 00:50:49;;;;;;;0.70;0.70;;;;;;;15.10;93.93;94709.41;5095008;27;20205;-77
2023/10/23 00:53:18;;;;;;;1.08;0.68;;;;;;;15.07;94.35;94710.09;5092582;28;20215;-77
2023/10/23 00:55:47;;;;;;;0.20;0.20;;;;;;;15.09;94.28;94726.91;5095035;28;20699;-77
2023/10/23 00:58:15;;;;;;;0.57;0.40;;;;;;;15.04;94.77;94718.97;5092503;28;20213;-77
2023/10/23 01:00:44;;;;;;;0.28;0.28;;;;;;;15.12;94.08;94712.56;5092091;28;20202;-77
2023/10/23 01:03:11;;;;;;;0.35;0.35;;;;;;;15.20;93.63;94708.84;5092194;28;20578;-77
2023/10/23 01:05:38;;;;;;;0.50;0.40;;;;;;;15.15;94.32;94717.31;5091979;28;20202;-77
2023/10/23 01:08:06;;;;;;;0.52;0.43;;;;;;;14.99;94.34;94702.91;5093105;28;20226;-77
2023/10/23 01:10:34;;;;;;;0.47;0.45;;;;;;;15.22;93.79;94712.03;5091904;28;20624;-77
2023/10/23 01:13:05;;;;;;;0.63;0.63;;;;;;;15.26;93.08;94702.00;5085945;28;20298;-77
2023/10/23 01:15:32;;;;;;;0.68;0.43;;;;;;;15.47;92.66;94702.44;5092216;28;20659;-77
2023/10/23 01:18:00;;;;;;;0.60;0.60;;;;;;;15.55;91.94;94706.97;5092459;28;20560;-78
2023/10/23 01:20:28;;;;;;;0.40;0.40;;;;;;;15.43;91.89;94701.59;5091581;28;20245;-78
2023/10/23 01:22:57;;;;;;;0.32;0.32;;;;;;;15.41;92.70;94703.91;5091527;28;20202;-78
2023/10/23 01:25:26;;;;;;;0.43;0.43;;;;;;;15.50;92.46;94690.03;5075409;28;20209;-77
2023/10/23 01:27:53;;;;;;;0.90;0.88;;;;;;;15.57;92.06;94701.16;5091757;28;20566;-77
2023/10/23 01:30:20;;;;;;;0.75;0.75;;;;;;;15.60;92.39;94700.41;5089726;28;20205;-77
2023/10/23 01:32:47;;;;;;;0.45;0.30;;;;;;;15.76;91.98;94692.19;5090615;28;20259;-77
2023/10/23 01:35:14;;;;;;;0.85;0.85;;;;;;;15.80;91.95;94690.31;5091347;28;20198;-77
2023/10/23 01:37:41;;;;;;;0.45;0.45;;;;;;;15.90;91.05;94698.72;5091314;28;20202;-77
2023/10/23 01:40:09;;;;;;;4.47;0.90;;;;;;;16.00;90.58;94702.81;5091526;28;20734;-77
2023/10/23 01:42:38;;;;;;;0.63;0.63;;;;;;;16.04;90.51;94700.16;5091676;28;20213;-77
2023/10/23 01:45:06;;;;;;;0.55;0.55;;;;;;;16.04;90.39;94697.44;5091157;28;20241;-77
2023/10/23 01:47:33;;;;;;;6.32;1.35;;;;;;;15.97;90.76;94698.09;5091135;28;20214;-78
2023/10/23 01:49:59;;;;;;;1.45;0.50;;;;;;;16.04;90.44;94700.94;5090575;28;20209;-77
2023/10/23 01:52:26;;;;;;;0.30;0.30;;;;;;;16.09;90.22;94703.41;5091577;28;20233;-77
2023/10/23 01:54:54;;;;;;;0.65;0.65;;;;;;;16.13;88.88;94696.03;5098418;28;20208;-77
2023/10/23 01:57:20;;;;;;;0.17;0.17;;;;;;;16.14;89.14;94703.09;5086514;28;20570;-77
2023/10/23 01:59:49;;;;;;;1.38;1.00;;;;;;;16.12;89.62;94699.16;5090949;28;20263;-77
2023/10/23 02:02:15;;;;;;;0.45;0.45;;;;;;;16.12;88.86;94704.63;5083685;28;20213;-77
2023/10/23 02:04:42;;;;;;;0.40;0.40;;;;;;;16.12;89.15;94699.97;5090919;28;20632;-77
2023/10/23 02:07:09;;;;;;;0.75;0.68;;;;;;;16.10;89.19;94713.19;5090993;28;20222;-77
2023/10/23 02:09:36;;;;;;;1.15;1.05;;;;;;;15.98;90.06;94711.41;5090664;28;20195;-77
2023/10/23 02:12:04;;;;;;;0.30;0.30;;;;;;;16.04;89.92;94708.34;5081726;28;20552;-77
2023/10/23 02:14:31;;;;;;;2.90;1.20;;;;;;;16.14;90.11;94708.56;5078289;28;20199;-78
2023/10/23 02:16:59;;;;;;;0.30;0.22;;;;;;;16.12;90.75;94699.16;5078957;28;20203;-77
2023/10/23 02:19:26;;;;;;;0.70;0.70;;;;;;;16.14;90.79;94700.38;5081506;28;20202;-75
2023/10/23 02:21:53;;;;;;;0.38;0.38;;;;;;;16.05;90.42;94699.81;5077182;28;20199;-76
2023/10/23 02:24:20;;;;;;;2.30;1.05;;;;;;;15.99;91.53;94704.75;5079783;28;20222;-76
2023/10/23 02:26:48;;;;;;;0.20;0.20;;;;;;;15.97;91.93;94711.75;5076238;28;20207;-78
2023/10/23 02:29:16;;;;;;;2.10;1.23;;;;;;;15.97;91.60;94709.03;5090660;28;20666;-77
2023/10/23 02:31:42;;;;;;;0.73;0.43;;;;;;;15.85;92.46;94712.66;5084816;28;20517;-77
2023/10/23 02:34:11;;;;;;;0.52;0.52;;;;;;;15.81;92.59;94703.63;5077606;28;20206;-77
2023/10/23 02:36:38;;;;;;;0.50;0.50;;;;;;;15.69;93.68;94697.50;5079137;28;20199;-77
2023/10/23 02:39:06;;;;;;;0.22;0.22;;;;;;;15.49;95.46;94697.44;5079933;28;20566;-78
2023/10/23 02:41:32;;;;;;;0.20;0.20;;;;;;;15.58;94.91;94703.50;5076681;28;20634;-76
2023/10/23 02:43:59;;;;;;;1.45;0.52;;;;;;;15.52;95.00;94704.91;5078607;28;20226;-76
2023/10/23 02:46:26;;;;;;;0.13;0.13;;;;;;;15.51;95.41;94708.00;5090289;28;20238;-77
2023/10/23 02:48:55;;;;;;;0.43;0.43;;;;;;;15.46;95.99;94700.88;5090251;28;20224;-77
2023/10/23 02:51:23;;;;;;;0.95;0.90;;;;;;;15.39;96.38;94706.19;5074188;28;20303;-77
2023/10/23 02:53:50;;;;;;;0.70;0.32;;;;;;;15.36;96.46;94706.88;5085042;28;20217;-75
2023/10/23 02:56:17;;;;;;;0.73;0.73;;;;;;;15.40;96.13;94710.50;5092544;28;20297;-76
2023/10/23 02:58:43;;;;;;;0.47;0.47;;;;;;;15.39;96.22;94716.31;5090065;28;20212;-76
2023/10/23 03:01:17;;;;;;;0.32;0.32;;;;;;;15.36;96.64;94706.88;5083264;28;20199;-76
2023/10/23 03:03:44;;;;;;;0.40;0.40;;;;;;;15.37;96.68;94719.38;5070879;28;20604;-77
2023/10/23 03:06:11;;;;;;;0.55;0.47;;;;;;;15.27;96.99;94719.94;5090380;28;20226;-76
2023/10/23 03:08:40;;;;;;;8.02;1.45;;;;;;;15.26;96.61;94724.63;5077294;28;20202;-76
2023/10/23 03:11:07;;;;;;;0.60;0.60;;;;;;;15.35;96.88;94710.75;5081909;28;20212;-77
2023/10/23 03:13:35;;;;;;;0.68;0.68;;;;;;;15.30;97.78;94702.88;5079930;28;20617;-76
2023/10/23 03:16:02;;;;;;;0.82;0.82;;;;;;;15.24;97.96;94705.06;5076911;28;20203;-76
2023/10/23 03:18:29;;;;;;;2.08;0.80;;;;;;;15.29;97.90;94706.75;5077213;28;20213;-77
2023/10/23 03:20:59;;;;;;;0.57;0.57;;;;;;;15.09;98.00;94713.28;5086159;28;20206;-77
2023/10/23 03:23:26;;;;;;;1.02;0.30;;;;;;;14.64;100.00;94711.78;5074363;28;20293;-77
2023/10/23 03:25:56;;;;;;;0.47;0.43;;;;;;;14.72;100.00;94727.19;5089543;28;20234;-77
2023/10/23 03:28:23;;;;;;;0.85;0.85;;;;;;;14.57;100.00;94720.59;5081708;28;20259;-77
2023/10/23 03:30:49;;;;;;;0.70;0.70;;;;;;;14.57;100.00;94717.84;5074750;28;20639;-77
2023/10/23 03:33:16;;;;;;;1.88;1.25;;;;;;;14.70;100.00;94729.47;5089353;28;20334;-77
2023/10/23 03:35:43;;;;;;;2.08;1.40;;;;;;;14.83;100.00;94722.78;5092793;28;20201;-79
2023/10/23 03:38:10;;;;;;;0.98;0.45;;;;;;;14.92;100.00;94731.56;5087529;28;20195;-77
2023/10/23 03:40:37;;;;;;;0.65;0.60;;;;;;;14.94;100.00;94729.28;5093638;28;20216;-76
2023/10/23 03:43:05;;;;;;;0.55;0.55;;;;;;;15.02;100.00;94730.28;5095198;28;20202;-76
2023/10/23 03:45:36;;;;;;;9.88;1.92;;;;;;;15.03;100.00;94717.44;5090827;28;20235;-76
2023/10/23 03:48:02;;;;;;;0.55;0.55;;;;;;;15.09;100.00;94724.97;5077320;28;20210;-76
2023/10/23 03:50:30;;;;;;;0.63;0.63;;;;;;;15.08;100.00;94723.38;5087933;28;20202;-76
2023/10/23 03:52:57;;;;;;;2.22;2.08;;;;;;;15.16;100.00;94721.63;5093485;28;20202;-75
2023/10/23 03:55:23;;;;;;;0.85;0.73;;;;;;;15.09;100.00;94724.19;5100164;28;20199;-80
2023/10/23 03:57:50;;;;;;;0.82;0.82;;;;;;;15.03;100.00;94720.16;5092944;28;20670;-77
2023/10/23 04:00:19;;;;;;;0.80;0.75;;;;;;;15.05;100.00;94717.84;5093521;28;20224;-77
2023/10/23 04:02:47;;;;;;;0.28;0.28;;;;;;;15.08;100.00;94722.59;5080357;28;20229;-77
2023/10/23 04:05:14;;;;;;;0.63;0.63;;;;;;;15.19;100.00;94718.19;5084884;28;20230;-79
2023/10/23 04:07:41;;;;;;;0.35;0.35;;;;;;;15.32;100.00;94716.13;5081160;28;20226;-78
2023/10/23 04:10:08;;;;;;;0.98;0.57;;;;;;;15.22;100.00;94722.94;5084852;28;20199;-78
2023/10/23 04:12:35;;;;;;;0.73;0.73;;;;;;;15.30;100.00;94713.78;5082781;28;20230;-78
2023/10/23 04:15:03;;;;;;;1.15;0.55;;;;;;;15.39;100.00;94716.31;5082540;28;20221;-77
2023/10/23 04:17:31;;;;;;;0.30;0.30;;;;;;;15.50;100.00;94712.66;5080571;28;20570;-78
2023/10/23 04:19:58;;;;;;;3.10;0.95;;;;;;;15.52;99.44;94721.31;5083137;28;20207;-78
2023/10/23 04:22:25;;;;;;;0.47;0.47;;;;;;;15.23;100.00;94724.53;5080175;28;20385;-78
2023/10/23 04:24:53;;;;;;;3.42;1.65;;;;;;;15.16;100.00;94727.09;5079338;28;20246;-78
2023/10/23 04:27:20;;;;;;;1.45;0.50;;;;;;;15.11;100.00;94732.81;5083672;28;20230;-78
2023/10/23 04:29:47;;;;;;;4.38;2.05;;;;;;;15.15;100.00;94733.69;5079732;28;20286;-79
2023/10/23 04:32:14;;;;;;;0.20;0.20;;;;;;;15.28;100.00;94727.00;5093089;28;20225;-79
2023/10/23 04:34:42;;;;;;;0.60;0.60;;;;;;;15.18;100.00;94738.44;5098220;28;20202;-77
2023/10/23 04:37:09;;;;;;;0.22;0.22;;;;;;;15.09;100.00;94746.00;5087464;28;20568;-79
2023/10/23 04:39:36;;;;;;;1.30;0.77;;;;;;;15.22;100.00;94745.56;5091094;28;20214;-79
2023/10/23 04:42:03;;;;;;;1.63;1.42;;;;;;;15.44;100.00;94746.88;5090527;28;20221;-79
2023/10/23 04:44:30;;;;;;;0.55;0.55;;;;;;;15.45;100.00;94736.72;5090310;28;20225;-78
2023/10/23 04:46:57;;;;;;;0.35;0.35;;;;;;;15.46;98.97;94738.28;5050349;28;20223;-78
2023/10/23 04:49:23;;;;;;;5.97;1.02;;;;;;;15.49;98.49;94737.59;5036785;28;20668;-78
2023/10/23 04:51:52;;;;;;;0.55;0.55;;;;;;;15.46;99.69;94749.22;5032426;28;20231;-78
2023/10/23 04:54:19;;;;;;;0.57;0.57;;;;;;;15.46;99.79;94739.09;5038306;28;20258;-78
2023/10/23 04:56:46;;;;;;;0.60;0.60;;;;;;;15.43;99.68;94739.81;5053321;28;20581;-78
2023/10/23 04:59:13;;;;;;;0.55;0.55;;;;;;;15.54;99.00;94735.38;5032539;28;20215;-77
2023/10/23 05:01:40;;;;;;;0.77;0.77;;;;;;;15.62;98.97;94737.16;5032512;28;20676;-77
2023/10/23 05:04:07;;;;;;;0.77;0.77;;;;;;;15.60;98.48;94733.97;5032760;28;20212;-77
2023/10/23 05:06:34;;;;;;;5.65;1.15;;;;;;;15.77;97.54;94742.94;5032934;28;20232;-77
2023/10/23 05:09:02;;;;;;;0.68;0.65;;;;;;;15.77;97.98;94748.38;5032534;28;20213;-77
2023/10/23 05:11:29;;;;;;;0.52;0.50;;;;;;;15.71;98.52;94744.38;5032873;28;20291;-77
2023/10/23 05:13:57;;;;;;;1.15;1.08;;;;;;;15.68;98.34;94756.00;5032031;28;20208;-77
2023/10/23 05:16:24;;;;;;;3.03;1.83;;;;;;;15.81;97.88;94754.72;5032304;28;20205;-77
2023/10/23 05:18:51;;;;;;;0.50;0.47;;;;;;;15.72;97.75;94756.84;5032330;28;20215;-77
2023/10/23 05:21:17;;;;;;;0.20;0.20;;;;;;;15.90;97.50;94752.56;5031977;28;20240;-77
2023/10/23 05:23:44;;;;;;;7.43;1.48;;;;;;;16.07;95.96;94749.44;5032304;28;20212;-78
2023/10/23 05:26:14;;;;;;;0.45;0.45;;;;;;;16.08;94.89;94755.69;5031954;28;20342;-77
2023/10/23 05:28:41;;;;;;;0.60;0.60;;;;;;;15.76;96.41;94760.47;5032264;28;20216;-76
2023/10/23 05:31:09;;;;;;;1.33;1.23;;;;;;;15.88;96.03;94776.72;5031860;28;20271;-77
2023/10/23 05:33:36;;;;;;;1.92;1.13;;;;;;;16.00;95.09;94771.91;5030182;28;20212;-77
2023/10/23 05:36:04;;;;;;;0.80;0.70;;;;;;;16.12;94.65;94771.00;5032283;28;20212;-77
2023/10/23 05:38:31;;;;;;;1.27;0.85;;;;;;;16.23;93.90;94766.56;5038322;28;20245;-77
2023/10/23 05:40:59;;;;;;;2.75;1.75;;;;;;;16.00;94.47;94762.94;5051405;28;20215;-77
2023/10/23 05:43:28;;;;;;;1.02;0.93;;;;;;;15.98;95.18;94748.84;5052225;28;20212;-77
2023/10/23 05:45:55;;;;;;;0.85;0.68;;;;;;;16.09;94.28;94760.00;5075105;28;20640;-77
2023/10/23 05:48:22;;;;;;;0.88;0.88;;;;;;;16.19;94.01;94776.63;5083207;28;20200;-77
2023/10/23 05:50:58;;;;;;;2.15;1.73;;;;;;;16.23;93.97;94774.75;5071352;28;20203;-77
2023/10/23 05:53:25;;;;;;;1.20;1.08;;;;;;;16.15;94.52;94769.47;5071845;28;20268;-77
2023/10/23 05:55:52;;;;;;;0.50;0.50;;;;;;;16.14;94.29;94768.69;5071332;28;20219;-77
2023/10/23 05:58:19;;;;;;;3.00;0.98;;;;;;;16.16;94.23;94771.84;5071599;28;20221;-77
2023/10/23 06:00:47;;;;;;;0.45;0.45;;;;;;;16.26;93.71;94774.00;5070974;28;20211;-77
2023/10/23 06:03:13;;;;;;;0.77;0.70;;;;;;;16.32;93.05;94769.84;5071422;28;20214;-77
2023/10/23 06:05:41;;;;;;;0.90;0.90;;;;;;;16.21;93.35;94768.84;5071224;28;20230;-76
2023/10/23 06:08:08;;;;;;;1.17;1.08;;;;;;;16.03;94.89;94777.81;5071432;28;20230;-77
2023/10/23 06:10:42;;;;;;;0.43;0.43;;;;;;;16.11;94.41;94771.38;5071003;28;20664;-77
2023/10/23 06:13:08;;;;;;;1.35;1.08;;;;;;;16.25;93.19;94769.72;5071175;28;20195;-77
2023/10/23 06:15:36;;;;;;;0.55;0.55;;;;;;;16.31;91.53;94776.47;5084836;28;20252;-77
2023/10/23 06:18:05;;;;;;;1.15;1.05;;;;;;;16.31;91.48;94779.19;5083150;28;20640;-78
2023/10/23 06:20:32;;;;;;;0.40;0.40;;;;;;;16.37;90.94;94784.41;5091402;28;20270;-77
2023/10/23 06:23:00;;;;;;;1.00;0.82;;;;;;;16.65;90.05;94793.19;5091144;28;20247;-77
2023/10/23 06:25:27;;;;;;;0.38;0.38;;;;;;;16.75;87.64;94787.13;5091299;28;20229;-77
2023/10/23 06:27:54;;;;;;;0.60;0.60;;;;;;;16.99;87.06;94794.97;5090774;28;20267;-78
2023/10/23 06:30:21;;;;;;;0.60;0.60;;;;;;;17.29;86.26;94794.31;5091070;28;20570;-77
2023/10/23 06:32:48;;;;;;;8.48;1.55;;;;;;;17.60;85.26;94804.22;5091050;28;20246;-78
2023/10/23 06:35:17;;;;;;;4.20;1.02;;;;;;;17.64;84.74;94805.06;5091457;28;20573;-77
2023/10/23 06:37:45;;;;;;;2.00;1.00;;;;;;;17.63;84.76;94796.06;5090758;28;20673;-78
2023/10/23 06:40:12;;;;;;;1.85;1.45;;;;;;;17.85;84.41;94799.13;5090725;28;20238;-77
2023/10/23 06:42:39;;;;;;;1.50;1.10;;;;;;;17.78;84.30;94805.28;5091221;28;20202;-78
2023/10/23 06:45:07;;;;;;;0.90;0.75;;;;;;;17.93;84.26;94806.28;5090456;28;20245;-77
2023/10/23 06:47:34;;;;;;;3.45;1.30;;;;;;;18.26;83.07;94803.63;5090769;28;20202;-78
2023/10/23 06:50:02;;;;;;;0.65;0.65;;;;;;;18.36;82.82;94813.16;5070096;28;20215;-78
2023/10/23 06:52:30;;;;;;;0.80;0.80;;;;;;;18.52;81.85;94802.78;5070869;28;20559;-78
2023/10/23 06:54:57;;;;;;;0.80;0.80;;;;;;;18.41;81.85;94810.88;5086054;28;20210;-77
2023/10/23 06:57:24;;;;;;;1.50;1.40;;;;;;;18.58;81.37;94816.97;5081376;28;20714;-77
2023/10/23 06:59:54;;;;;;;1.48;1.17;;;;;;;18.78;80.48;94812.91;5070038;28;20217;-77
2023/10/23 07:02:20;;;;;;;0.32;0.32;;;;;;;18.79;80.17;94819.97;5070722;28;20543;-77
2023/10/23 07:04:48;;;;;;;2.22;1.35;;;;;;;19.11;78.90;94823.88;5070032;28;20210;-77
2023/10/23 07:07:15;;;;;;;6.35;2.40;;;;;;;19.32;78.12;94825.22;5070396;28;20273;-77
2023/10/23 07:09:43;;;;;;;1.33;1.00;;;;;;;19.55;76.85;94817.59;5070249;28;20215;-77
2023/10/23 07:12:11;;;;;;;2.35;0.68;;;;;;;19.38;77.02;94820.97;5070071;28;20674;-76
2023/10/23 07:14:38;;;;;;;2.55;1.55;;;;;;;19.55;75.84;94823.09;5080756;28;20217;-76
2023/10/23 07:17:05;;;;;;;8.23;2.92;;;;;;;19.43;76.31;94818.66;5090046;28;20216;-77
2023/10/23 07:19:33;;;;;;;6.22;2.60;;;;;;;19.10;77.51;94819.53;5090590;28;20242;-77
2023/10/23 07:22:00;;;;;;;5.72;2.80;;;;;;;19.17;77.61;94818.81;5071229;28;20217;-77
2023/10/23 07:24:27;;;;;;;1.55;1.23;;;;;;;19.06;77.86;94815.16;5070477;28;20218;-77
2023/10/23 07:26:55;;;;;;;5.07;2.47;;;;;;;19.23;77.77;94817.31;5069613;28;20223;-78
2023/10/23 07:29:22;;;;;;;6.30;2.72;;;;;;;19.33;76.99;94815.81;5070164;28;20210;-77
2023/10/23 07:31:52;;;;;;;3.17;2.22;;;;;;;19.33;76.43;94813.06;5070102;28;20565;-77
2023/10/23 07:34:18;;;;;;;4.00;2.08;;;;;;;19.74;75.54;94819.34;5070370;28;20234;-78
2023/10/23 07:36:45;;;;;;;2.45;2.10;;;;;;;19.67;76.06;94814.59;5070011;28;20567;-77
2023/10/23 07:39:12;;;;;;;5.10;2.50;;;;;;;19.62;76.15;94817.69;5070710;28;20215;-78
2023/10/23 07:41:39;;;;;;;4.40;2.40;;;;;;;19.55;76.06;94816.81;5069799;28;20210;-77
2023/10/23 07:44:09;;;;;;;1.17;0.88;;;;;;;19.65;75.42;94816.13;5069949;28;20207;-78
2023/10/23 07:46:35;;;;;;;3.17;2.38;;;;;;;19.94;74.18;94806.16;5069394;28;20737;-76
2023/10/23 07:49:02;;;;;;;4.35;2.95;;;;;;;20.02;73.85;94805.00;5070117;28;20602;-78
2023/10/23 07:51:29;;;;;;;3.25;2.47;;;;;;;19.91;73.91;94812.41;5083965;28;20617;-77
2023/10/23 07:53:56;;;;;;;1.67;1.05;;;;;;;20.19;73.49;94812.59;5070074;28;20553;-78
2023/10/23 07:56:23;;;;;;;0.93;0.77;;;;;;;20.16;72.73;94807.84;5070304;28;20637;-78
2023/10/23 07:58:51;;;;;;;5.72;1.88;;;;;;;20.07;73.29;94818.41;5069814;28;20285;-78
2023/10/23 08:01:19;;;;;;;0.80;0.80;;;;;;;19.80;74.45;94810.38;5069816;28;20230;-77
2023/10/23 08:03:46;;;;;;;6.43;3.25;;;;;;;19.83;74.73;94801.34;5069755;28;20284;-77
2023/10/23 08:06:13;;;;;;;4.18;2.83;;;;;;;19.75;74.79;94810.72;5069610;28;20239;-78
2023/10/23 08:08:41;;;;;;;12.07;4.22;;;;;;;19.71;74.82;94818.13;5070170;28;20277;-77
2023/10/23 08:11:10;;;;;;;4.47;2.38;;;;;;;19.92;74.35;94820.28;5069742;28;20210;-78
2023/10/23 08:13:38;;;;;;;4.32;1.88;;;;;;;19.90;74.11;94811.63;5070101;28;20637;-77
2023/10/23 08:16:05;;;;;;;5.10;3.08;;;;;;;19.95;74.29;94813.22;5069337;28;20210;-77
2023/10/23 08:18:35;;;;;;;5.97;3.45;;;;;;;20.06;74.28;94814.06;5069453;28;20218;-78
2023/10/23 08:21:09;;;;;;;4.82;2.70;;;;;;;20.31;73.36;94809.50;5069614;28;20635;-76
2023/10/23 08:23:36;;;;;;;1.02;0.75;;;;;;;20.47;71.97;94812.78;5071616;28;20302;-75
2023/10/23 08:26:03;;;;;;;1.15;0.65;;;;;;;20.31;72.36;94815.00;5072934;28;20561;-76
2023/10/23 08:28:33;;;;;;;1.25;1.02;;;;;;;20.21;72.29;94810.25;5073603;28;20214;-75
2023/10/23 08:31:00;;;;;;;2.78;1.00;;;;;;;20.26;72.90;94807.09;5072734;28;20670;-75
2023/10/23 08:33:27;;;;;;;2.03;1.35;;;;;;;20.60;71.07;94801.41;5072357;28;20230;-75
2023/10/23 08:35:55;;;;;;;6.38;2.45;;;;;;;21.05;69.33;94808.22;5072085;28;20210;-76
2023/10/23 08:38:22;;;;;;;1.00;1.00;;;;;;;21.21;68.68;94800.44;5071545;28;20691;-75
2023/10/23 08:40:49;;;;;;;0.80;0.80;;;;;;;21.52;67.44;94799.69;5070906;28;20213;-75
2023/10/23 08:43:16;;;;;;;4.82;2.80;;;;;;;21.22;67.44;94797.28;5070685;28;20215;-75
2023/10/23 08:45:44;;;;;;;1.88;1.35;;;;;;;20.47;70.02;94801.75;5071108;28;20239;-75
2023/10/23 08:48:11;;;;;;;1.17;1.05;;;;;;;20.75;69.14;94794.78;5071306;28;20257;-75
2023/10/23 08:50:40;;;;;;;15.23;1.48;;;;;;;21.02;68.75;94793.28;5083910;28;20574;-75
2023/10/23 08:53:10;;;;;;;12.90;1.60;;;;;;;21.16;68.19;94795.28;5070808;28;20325;-75
2023/10/23 08:55:38;;;;;;;2.22;1.00;;;;;;;20.64;69.09;94788.47;5097521;28;20198;-76
2023/10/23 08:58:06;;;;;;;0.68;0.60;;;;;;;20.97;68.45;94790.91;5070573;28;20207;-75
2023/10/23 09:00:33;;;;;;;1.73;1.63;;;;;;;20.74;69.33;94798.72;5071863;28;20307;-76
2023/10/23 09:03:01;;;;;;;1.63;1.20;;;;;;;20.57;70.06;94798.25;5071905;28;20253;-75
2023/10/23 09:05:28;;;;;;;3.70;2.55;;;;;;;20.43;70.04;94789.94;5071723;28;20221;-77
2023/10/23 09:07:55;;;;;;;1.45;0.88;;;;;;;20.51;70.00;94790.75;5071729;28;20229;-75
2023/10/23 09:10:26;;;;;;;11.18;1.65;;;;;;;20.68;69.97;94789.25;5076956;28;20214;-75
2023/10/23 09:12:57;;;;;;;0.80;0.80;;;;;;;20.64;69.89;94794.72;5072030;28;20610;-75
2023/10/23 09:15:24;;;;;;;0.95;0.93;;;;;;;20.85;69.47;94791.28;5071506;28;20203;-75
2023/10/23 09:17:53;;;;;;;1.33;1.23;;;;;;;21.04;68.57;94779.91;5071212;28;20211;-75
2023/10/23 09:20:23;;;;;;;5.20;2.65;;;;;;;21.32;67.64;94783.94;5071409;28;20213;-76
2023/10/23 09:22:52;;;;;;;4.18;1.95;;;;;;;21.63;66.73;94783.13;5071506;28;20211;-75
2023/10/23 09:25:20;;;;;;;5.25;2.75;;;;;;;21.27;66.72;94772.09;5071651;28;20211;-75
2023/10/23 09:27:49;;;;;;;5.18;2.35;;;;;;;21.30;66.80;94781.56;5075677;28;20249;-76
2023/10/23 09:30:21;;;;;;;6.50;2.75;;;;;;;21.49;66.19;94781.16;5071630;28;20272;-72
2023/10/23 09:32:51;;;;;;;5.82;3.10;;;;;;;22.20;65.19;94783.09;5071537;28;20199;-75
2023/10/23 09:35:18;;;;;;;2.55;1.90;;;;;;;22.12;64.32;94781.53;5071147;28;20309;-73
2023/10/23 09:37:45;;;;;;;6.45;2.83;;;;;;;22.54;63.61;94775.91;5071297;28;20655;-76
2023/10/23 09:40:13;;;;;;;4.97;1.90;;;;;;;22.86;62.00;94774.97;5071278;28;20211;-75
2023/10/23 09:42:40;;;;;;;8.23;3.03;;;;;;;22.63;61.95;94767.97;5071270;28;20207;-75
2023/10/23 09:45:10;;;;;;;4.07;2.40;;;;;;;22.36;63.15;94764.13;5070466;28;20238;-75
2023/10/23 09:47:37;;;;;;;5.68;1.95;;;;;;;22.61;62.28;94764.81;5070271;28;20231;-75
2023/10/23 09:50:04;;;;;;;3.47;2.15;;;;;;;22.64;62.04;94761.25;5078313;28;20210;-75
2023/10/23 09:52:36;;;;;;;2.95;1.50;;;;;;;22.31;62.22;94756.25;5091434;28;20206;-74
2023/10/23 09:55:04;;;;;;;2.90;1.90;;;;;;;22.32;63.00;94764.13;5099511;28;20232;-75
2023/10/23 09:57:36;;;;;;;3.20;1.85;;;;;;;22.85;61.33;94757.63;5082085;28;20211;-76
2023/10/23 10:00:13;;;;;;;3.42;2.28;;;;;;;22.96;61.16;94752.81;5081005;28;20210;-76
2023/10/23 10:02:44;;;;;;;5.07;1.80;;;;;;;22.86;62.04;94752.88;5070988;28;20218;-75
2023/10/23 10:05:18;;;;;;;3.03;1.95;;;;;;;22.60;62.59;94752.19;5079451;28;20592;-76
2023/10/23 10:07:57;;;;;;;3.72;2.30;;;;;;;22.67;62.36;94748.63;5077542;28;20326;-75
2023/10/23 10:10:26;;;;;;;3.55;1.63;;;;;;;22.54;62.28;94751.03;5074568;28;20233;-76
2023/10/23 10:12:56;;;;;;;2.60;1.63;;;;;;;22.55;62.05;94744.31;5070877;28;20764;-74
2023/10/23 10:15:23;;;;;;;2.70;1.60;;;;;;;22.48;62.19;94738.03;5070678;28;20682;-74
2023/10/23 10:17:52;;;;;;;5.53;3.20;;;;;;;22.54;61.81;94731.72;5081149;28;20551;-76
2023/10/23 10:20:21;;;;;;;3.15;2.03;;;;;;;22.68;62.03;94730.88;5072719;28;20232;-75
2023/10/23 10:22:55;;;;;;;4.60;2.00;;;;;;;23.04;60.91;94731.47;5072854;28;20290;-75
2023/10/23 10:25:22;;;;;;;5.72;2.17;;;;;;;22.71;61.55;94730.03;5079168;28;20612;-76
2023/10/23 10:27:57;;;;;;;2.25;1.67;;;;;;;22.50;61.96;94730.94;5084274;28;20233;-75
2023/10/23 10:30:41;;;;;;;3.65;2.85;;;;;;;22.95;60.94;94728.38;5069072;28;20629;-75
2023/10/23 10:33:11;;;;;;;3.45;2.05;;;;;;;23.02;61.03;94726.34;5075505;28;20203;-75
2023/10/23 10:35:38;;;;;;;3.53;2.25;;;;;;;23.56;59.95;94717.66;5082192;28;20206;-75
2023/10/23 10:38:12;;;;;;;2.58;1.98;;;;;;;24.11;58.37;94714.75;5084228;28;20195;-75
2023/10/23 10:40:56;;;;;;;2.22;1.50;;;;;;;24.58;56.44;94710.28;5072911;28;20206;-76
2023/10/23 10:43:24;;;;;;;2.63;2.15;;;;;;;24.96;54.98;94701.88;5078480;28;20293;-76
2023/10/23 10:45:51;;;;;;;4.65;2.58;;;;;;;25.13;55.28;94700.81;5087502;28;20606;-75
2023/10/23 10:48:20;;;;;;;7.60;2.50;;;;;;;24.58;55.04;94704.72;5069711;28;20222;-75
2023/10/23 10:50:47;;;;;;;3.92;2.60;;;;;;;24.25;55.31;94691.69;5076722;28;20198;-75
2023/10/23 10:53:15;;;;;;;4.30;2.25;;;;;;;24.57;55.02;94685.75;5079511;28;20570;-77
2023/10/23 10:55:46;;;;;;;3.58;1.92;;;;;;;24.17;55.42;94690.19;5111639;28;20209;-76
2023/10/23 10:58:13;;;;;;;4.70;2.40;;;;;;;24.08;55.65;94693.41;5101819;28;20210;-78
2023/10/23 11:00:43;;;;;;;2.20;1.42;;;;;;;24.77;53.73;94678.34;5101565;28;20214;-79
2023/10/23 11:03:10;;;;;;;2.42;1.48;;;;;;;24.93;53.50;94680.50;5071927;28;20213;-75
2023/10/23 11:05:40;;;;;;;3.05;2.30;;;;;;;24.24;53.29;94670.72;5071999;28;20237;-79
2023/10/23 11:08:06;;;;;;;3.13;1.77;;;;;;;23.52;56.33;94678.97;5075588;28;20238;-77
2023/10/23 11:10:34;;;;;;;6.03;1.92;;;;;;;23.36;55.96;94682.25;5070890;28;20214;-78
2023/10/23 11:13:02;;;;;;;4.80;1.52;;;;;;;22.98;55.89;94675.03;5072058;28;20198;-78
2023/10/23 11:15:28;;;;;;;3.22;1.73;;;;;;;22.83;56.37;94684.63;5070673;28;20661;-72
2023/10/23 11:17:56;;;;;;;5.68;1.40;;;;;;;22.68;54.91;94675.63;5080773;28;20205;-73
2023/10/23 11:20:23;;;;;;;2.30;1.27;;;;;;;22.84;53.37;94666.84;5089678;28;20210;-77
2023/10/23 11:22:53;;;;;;;2.45;1.67;;;;;;;23.23;54.34;94667.38;5090037;28;20206;-75
2023/10/23 11:25:20;;;;;;;6.68;1.10;;;;;;;23.67;54.08;94657.50;5090326;28;20229;-74
2023/10/23 11:27:51;;;;;;;2.25;1.17;;;;;;;23.65;51.27;94654.34;5090904;28;20226;-73
2023/10/23 11:30:18;;;;;;;4.25;1.33;;;;;;;23.42;51.67;94660.47;5090568;28;20630;-75
2023/10/23 11:32:45;;;;;;;1.52;1.30;;;;;;;23.24;52.73;94668.13;5077132;28;20574;-74
2023/10/23 11:35:12;;;;;;;4.88;1.67;;;;;;;23.01;53.42;94660.41;5076813;28;20760;-75